createdAt,value
2019-03-31T00:01:25.328Z,21.63
2019-03-31T00:03:54.475Z,21.33
2019-03-31T00:06:23.009Z,23.50
2019-03-31T00:08:51.622Z,21.53
2019-03-31T00:11:20.194Z,21.67
2019-03-31T00:13:48.767Z,24.30
2019-03-31T00:16:17.512Z,21.13
2019-03-31T00:18:46.088Z,21.73
2019-03-31T00:21:14.652Z,23.20
2019-03-31T00:23:43.252Z,23.20
2019-03-31T00:26:11.879Z,19.83
2019-03-31T00:28:40.478Z,21.60
2019-03-31T00:31:21.590Z,24.40
2019-03-31T00:33:40.196Z,20.70
2019-03-31T00:36:08.775Z,21.67
2019-03-31T00:38:37.760Z,23.70
2019-03-31T00:41:06.328Z,19.67
2019-03-31T00:43:34.915Z,20.20
2019-03-31T00:46:03.653Z,19.03
2019-03-31T00:48:32.476Z,20.57
2019-03-31T00:51:01.070Z,20.33
2019-03-31T00:53:29.631Z,20.43
2019-03-31T00:55:58.236Z,17.43
2019-03-31T00:58:26.878Z,17.87
2019-03-31T01:00:59.243Z,18.03
2019-03-31T01:03:28.129Z,20.23
2019-03-31T01:05:56.774Z,22.07
2019-03-31T01:08:29.304Z,19.33
2019-03-31T01:10:57.935Z,15.97
2019-03-31T01:13:27.249Z,17.50
2019-03-31T01:15:57.797Z,18.67
2019-03-31T01:18:26.807Z,19.20
2019-03-31T01:20:55.856Z,18.77
2019-03-31T01:23:24.834Z,19.03
2019-03-31T01:25:53.387Z,21.70
2019-03-31T01:28:22.359Z,19.33
2019-03-31T01:30:50.925Z,23.42
2019-03-31T01:33:19.651Z,23.63
2019-03-31T01:35:48.234Z,22.70
2019-03-31T01:38:16.996Z,22.20
2019-03-31T01:40:46.410Z,19.23
2019-03-31T01:43:15.094Z,19.97
2019-03-31T01:45:44.010Z,19.80
2019-03-31T01:48:12.960Z,23.77
2019-03-31T01:50:41.626Z,21.50
2019-03-31T01:53:10.257Z,25.17
2019-03-31T01:55:38.909Z,21.87
2019-03-31T01:58:07.699Z,21.03
2019-03-31T02:00:40.683Z,17.53
2019-03-31T02:03:09.334Z,22.20
2019-03-31T02:05:37.990Z,23.27
2019-03-31T02:08:07.546Z,20.93
2019-03-31T02:10:36.197Z,17.17
2019-03-31T02:13:05.010Z,21.77
2019-03-31T02:15:33.801Z,20.83
2019-03-31T02:18:02.444Z,21.77
2019-03-31T02:20:31.093Z,21.65
2019-03-31T02:22:59.682Z,22.97
2019-03-31T02:25:28.502Z,20.37
2019-03-31T02:27:57.100Z,21.83
2019-03-31T02:30:25.675Z,20.53
2019-03-31T02:32:54.352Z,20.70
2019-03-31T02:35:22.937Z,20.53
2019-03-31T02:37:51.511Z,20.37
2019-03-31T02:40:20.087Z,19.07
2019-03-31T02:42:48.729Z,20.70
2019-03-31T02:45:17.302Z,19.27
2019-03-31T02:47:45.869Z,19.80
2019-03-31T02:50:17.542Z,25.83
2019-03-31T02:52:46.109Z,22.07
2019-03-31T02:55:14.762Z,21.60
2019-03-31T02:57:44.256Z,22.33
2019-03-31T03:00:13.072Z,21.03
2019-03-31T03:02:42.830Z,22.17
2019-03-31T03:05:19.726Z,21.50
2019-03-31T03:07:45.075Z,20.77
2019-03-31T03:10:13.907Z,21.70
2019-03-31T03:12:44.269Z,24.90
2019-03-31T03:15:16.018Z,23.57
2019-03-31T03:17:44.665Z,22.50
2019-03-31T03:20:13.566Z,23.95
2019-03-31T03:22:42.139Z,22.50
2019-03-31T03:25:10.734Z,24.77
2019-03-31T03:27:39.338Z,23.43
2019-03-31T03:30:08.339Z,23.10
2019-03-31T03:32:36.909Z,27.03
2019-03-31T03:35:05.565Z,24.37
2019-03-31T03:37:34.186Z,23.73
2019-03-31T03:40:02.747Z,21.47
2019-03-31T03:42:31.347Z,22.57
2019-03-31T03:44:59.905Z,23.50
2019-03-31T03:47:28.497Z,25.10
2019-03-31T03:49:57.080Z,27.20
2019-03-31T03:52:25.715Z,23.13
2019-03-31T03:54:54.365Z,21.17
2019-03-31T03:57:22.962Z,27.03
2019-03-31T03:59:51.515Z,24.67
2019-03-31T04:02:20.164Z,28.20
2019-03-31T04:04:48.771Z,25.37
2019-03-31T04:07:17.341Z,22.47
2019-03-31T04:09:46.019Z,27.50
2019-03-31T04:12:14.595Z,25.33
2019-03-31T04:14:43.164Z,25.80
2019-03-31T04:17:11.719Z,25.43
2019-03-31T04:19:40.295Z,23.00
2019-03-31T04:22:08.882Z,22.50
2019-03-31T04:24:37.469Z,24.83
2019-03-31T04:27:06.055Z,18.67
2019-03-31T04:29:34.638Z,25.23
2019-03-31T04:32:03.191Z,24.33
2019-03-31T04:34:31.795Z,25.73
2019-03-31T04:37:00.352Z,24.50
2019-03-31T04:39:28.910Z,24.80
2019-03-31T04:41:57.603Z,24.83
2019-03-31T04:44:26.135Z,24.97
2019-03-31T04:46:55.221Z,20.80
2019-03-31T04:49:23.807Z,25.20
2019-03-31T04:51:52.443Z,25.80
2019-03-31T04:54:21.053Z,21.77
2019-03-31T04:56:49.622Z,24.80
2019-03-31T04:59:18.188Z,21.77
2019-03-31T05:01:46.794Z,22.97
2019-03-31T05:04:15.387Z,22.37
2019-03-31T05:06:44.005Z,28.80
2019-03-31T05:09:12.581Z,22.73
2019-03-31T05:11:41.134Z,26.30
2019-03-31T05:14:09.775Z,25.70
2019-03-31T05:16:38.362Z,22.27
2019-03-31T05:19:06.954Z,21.10
2019-03-31T05:21:35.515Z,24.37
2019-03-31T05:24:04.122Z,25.50
2019-03-31T05:26:32.712Z,25.85
2019-03-31T05:29:01.323Z,25.93
2019-03-31T05:31:29.914Z,30.17
2019-03-31T05:33:58.464Z,30.07
2019-03-31T05:36:27.073Z,26.77
2019-03-31T05:38:55.657Z,29.10
2019-03-31T05:41:24.267Z,28.93
2019-03-31T05:44:05.142Z,25.90
2019-03-31T05:46:23.219Z,28.07
2019-03-31T05:48:51.775Z,27.37
2019-03-31T05:51:20.361Z,27.47
2019-03-31T05:53:48.936Z,30.63
2019-03-31T05:56:17.585Z,35.93
2019-03-31T05:58:46.533Z,34.83
2019-03-31T06:01:15.156Z,31.17
2019-03-31T06:03:43.745Z,31.50
2019-03-31T06:06:12.298Z,35.60
2019-03-31T06:08:40.883Z,34.10
2019-03-31T06:11:09.550Z,34.13
2019-03-31T06:13:38.126Z,29.40
2019-03-31T06:16:06.701Z,31.90
2019-03-31T06:18:35.301Z,35.90
2019-03-31T06:21:03.924Z,38.33
2019-03-31T06:23:32.643Z,36.23
2019-03-31T06:26:01.364Z,37.30
2019-03-31T06:28:29.907Z,38.57
2019-03-31T06:30:58.485Z,36.00
2019-03-31T06:33:27.112Z,42.73
2019-03-31T06:35:55.823Z,40.50
2019-03-31T06:38:24.378Z,41.73
2019-03-31T06:40:54.586Z,41.87
2019-03-31T06:43:23.161Z,42.70
2019-03-31T06:45:51.731Z,44.70
2019-03-31T06:48:20.287Z,45.93
2019-03-31T06:50:48.892Z,38.70
2019-03-31T06:53:17.580Z,48.60
2019-03-31T06:55:46.153Z,45.03
2019-03-31T06:58:14.742Z,42.07
2019-03-31T07:00:43.299Z,44.63
2019-03-31T07:03:12.251Z,46.23
2019-03-31T07:05:40.819Z,48.27
2019-03-31T07:08:09.390Z,47.53
2019-03-31T07:10:37.965Z,44.23
2019-03-31T07:13:06.873Z,43.30
2019-03-31T07:15:35.506Z,50.70
2019-03-31T07:18:04.561Z,43.93
2019-03-31T07:20:33.114Z,42.50
2019-03-31T07:23:02.043Z,50.67
2019-03-31T07:25:30.590Z,45.03
2019-03-31T07:27:59.255Z,50.47
2019-03-31T07:30:27.907Z,45.50
2019-03-31T07:32:56.483Z,45.93
2019-03-31T07:35:25.057Z,46.93
2019-03-31T07:37:53.711Z,46.20
2019-03-31T07:40:23.381Z,47.13
2019-03-31T07:42:52.154Z,47.77
2019-03-31T07:45:21.173Z,44.83
2019-03-31T07:47:49.824Z,43.20
2019-03-31T07:50:19.457Z,47.83
2019-03-31T07:52:48.082Z,47.40
2019-03-31T07:55:18.800Z,45.10
2019-03-31T07:57:47.831Z,48.70
2019-03-31T08:00:19.310Z,46.53
2019-03-31T08:02:47.969Z,48.57
2019-03-31T08:05:16.984Z,51.10
2019-03-31T08:07:46.347Z,48.83
2019-03-31T08:10:15.311Z,47.80
2019-03-31T08:12:43.888Z,47.27
2019-03-31T08:15:13.338Z,48.87
2019-03-31T08:17:42.851Z,44.20
2019-03-31T08:20:13.866Z,48.80
2019-03-31T08:22:42.976Z,51.50
2019-03-31T08:25:13.536Z,50.03
2019-03-31T08:27:42.118Z,50.10
2019-03-31T08:30:13.242Z,49.33
2019-03-31T08:32:42.522Z,55.50
2019-03-31T08:35:11.653Z,52.00
2019-03-31T08:37:40.307Z,49.90
2019-03-31T08:40:11.025Z,48.17
2019-03-31T08:42:39.822Z,51.20
2019-03-31T08:45:09.115Z,48.53
2019-03-31T08:47:38.142Z,50.17
2019-03-31T08:50:07.877Z,49.63
2019-03-31T08:52:36.506Z,46.90
2019-03-31T08:55:06.462Z,51.40
2019-03-31T08:57:35.559Z,46.30
2019-03-31T09:00:07.138Z,52.10
2019-03-31T09:02:36.002Z,50.20
2019-03-31T09:05:07.382Z,44.10
2019-03-31T09:07:36.044Z,49.37
2019-03-31T09:10:07.985Z,51.80
2019-03-31T09:12:37.478Z,52.23
2019-03-31T09:15:08.917Z,49.07
2019-03-31T09:17:37.638Z,46.47
2019-03-31T09:20:07.756Z,46.83
2019-03-31T09:22:36.510Z,48.77
2019-03-31T09:25:06.731Z,56.00
2019-03-31T09:27:35.297Z,47.50
2019-03-31T09:30:08.877Z,43.13
2019-03-31T09:32:37.792Z,44.37
2019-03-31T09:35:09.682Z,41.93
2019-03-31T09:37:38.505Z,44.07
2019-03-31T09:40:11.110Z,47.63
2019-03-31T09:42:39.845Z,44.53
2019-03-31T09:45:10.342Z,47.37
2019-03-31T09:47:39.758Z,40.00
2019-03-31T09:50:17.020Z,39.87
2019-03-31T09:52:44.167Z,42.47
2019-03-31T09:55:13.005Z,41.53
2019-03-31T09:57:41.698Z,50.37
2019-03-31T10:00:15.772Z,44.27
2019-03-31T10:02:44.634Z,41.30
2019-03-31T10:05:13.848Z,49.47
2019-03-31T10:07:43.069Z,41.67
2019-03-31T10:10:17.358Z,40.27
2019-03-31T10:12:45.936Z,40.93
2019-03-31T10:15:14.666Z,47.60
2019-03-31T10:17:43.248Z,34.40
2019-03-31T10:20:11.943Z,37.43
2019-03-31T10:22:40.537Z,38.13
2019-03-31T10:25:09.530Z,39.50
2019-03-31T10:27:38.467Z,35.80
2019-03-31T10:30:08.262Z,34.37
2019-03-31T10:32:36.851Z,34.17
2019-03-31T10:35:08.483Z,31.63
2019-03-31T10:37:37.053Z,37.43
2019-03-31T10:40:10.662Z,33.67
2019-03-31T10:42:39.326Z,37.67
2019-03-31T10:45:08.780Z,29.47
2019-03-31T10:47:37.363Z,30.43
2019-03-31T10:50:08.993Z,31.23
2019-03-31T10:52:37.546Z,29.27
2019-03-31T10:55:06.898Z,29.93
2019-03-31T10:57:35.912Z,26.20
2019-03-31T11:00:09.691Z,27.03
2019-03-31T11:02:38.340Z,24.77
2019-03-31T11:05:07.559Z,27.50
2019-03-31T11:07:36.255Z,23.80
2019-03-31T11:10:08.141Z,23.47
2019-03-31T11:12:36.721Z,24.50
2019-03-31T11:15:07.190Z,21.43
2019-03-31T11:17:35.783Z,20.40
2019-03-31T11:20:06.411Z,22.77
2019-03-31T11:22:39.565Z,20.30
2019-03-31T11:25:20.251Z,18.93
2019-03-31T11:27:38.860Z,23.33
2019-03-31T11:30:09.585Z,20.53
2019-03-31T11:32:38.164Z,20.07
2019-03-31T11:35:07.777Z,16.57
2019-03-31T11:37:36.690Z,21.43
2019-03-31T11:40:08.684Z,18.10
2019-03-31T11:42:37.270Z,17.00
2019-03-31T11:45:09.251Z,20.03
2019-03-31T11:47:37.807Z,16.90
2019-03-31T11:50:08.579Z,14.47
2019-03-31T11:52:37.151Z,17.43
2019-03-31T11:55:08.494Z,14.07
2019-03-31T11:57:37.530Z,17.50
2019-03-31T12:00:15.227Z,14.90
2019-03-31T12:02:43.809Z,17.17
2019-03-31T12:05:12.598Z,15.37
2019-03-31T12:07:47.192Z,14.07
2019-03-31T12:10:12.050Z,13.30
2019-03-31T12:12:40.690Z,13.23
2019-03-31T12:15:09.404Z,17.57
2019-03-31T12:17:38.074Z,17.47
2019-03-31T12:20:10.096Z,14.17
2019-03-31T12:22:38.798Z,16.63
2019-03-31T12:25:08.196Z,16.13
2019-03-31T12:27:36.859Z,17.67
2019-03-31T12:30:07.177Z,15.43
2019-03-31T12:32:38.425Z,19.20
2019-03-31T12:35:08.454Z,18.37
2019-03-31T12:37:42.823Z,21.70
2019-03-31T12:40:09.425Z,16.70
2019-03-31T12:42:38.006Z,16.03
2019-03-31T12:45:07.023Z,14.97
2019-03-31T12:47:35.634Z,12.60
2019-03-31T12:50:06.574Z,15.40
2019-03-31T12:52:46.181Z,13.90
2019-03-31T12:55:06.253Z,15.23
2019-03-31T12:57:35.034Z,11.63
2019-03-31T13:00:06.025Z,12.93
2019-03-31T13:02:34.903Z,12.37
2019-03-31T13:05:04.511Z,16.43
2019-03-31T13:07:33.068Z,12.37
2019-03-31T13:10:01.997Z,12.50
2019-03-31T13:12:30.553Z,12.10
2019-03-31T13:14:59.133Z,11.70
2019-03-31T13:17:27.730Z,12.93
2019-03-31T13:19:56.387Z,13.03
2019-03-31T13:22:24.969Z,12.60
2019-03-31T13:24:53.523Z,10.63
2019-03-31T13:27:22.097Z,10.43
2019-03-31T13:29:50.805Z,11.03
2019-03-31T13:32:19.359Z,13.87
2019-03-31T13:34:47.950Z,15.10
2019-03-31T13:37:16.614Z,12.00
2019-03-31T13:39:45.233Z,11.00
2019-03-31T13:42:13.831Z,13.57
2019-03-31T13:44:42.731Z,12.13
2019-03-31T13:47:11.311Z,11.53
2019-03-31T13:49:39.907Z,12.15
2019-03-31T13:52:08.470Z,12.90
2019-03-31T13:54:37.046Z,12.37
2019-03-31T13:57:07.095Z,10.00
2019-03-31T13:59:36.171Z,10.97
2019-03-31T14:02:04.905Z,10.03
2019-03-31T14:04:35.533Z,12.37
2019-03-31T14:07:04.559Z,12.27
2019-03-31T14:09:33.282Z,11.17
2019-03-31T14:12:02.163Z,9.90
2019-03-31T14:14:30.767Z,12.40
2019-03-31T14:16:59.378Z,9.30
2019-03-31T14:19:27.930Z,10.77
2019-03-31T14:21:56.521Z,11.10
2019-03-31T14:24:26.973Z,10.30
2019-03-31T14:26:55.439Z,11.03
2019-03-31T14:29:24.102Z,8.93
2019-03-31T14:31:52.780Z,11.23
2019-03-31T14:34:21.314Z,10.90
2019-03-31T14:36:50.259Z,11.37
2019-03-31T14:39:18.836Z,12.25
2019-03-31T14:41:47.418Z,9.70
2019-03-31T14:44:16.130Z,8.90
2019-03-31T14:46:44.688Z,10.93
2019-03-31T14:49:13.288Z,9.60
2019-03-31T14:51:41.839Z,9.67
2019-03-31T14:54:10.472Z,10.47
2019-03-31T14:56:39.006Z,7.87
2019-03-31T14:59:07.901Z,9.53
2019-03-31T15:01:36.485Z,7.57
2019-03-31T15:04:05.185Z,5.50
2019-03-31T15:06:33.763Z,6.63
2019-03-31T15:09:02.399Z,5.67
2019-03-31T15:11:30.964Z,6.67
2019-03-31T15:13:59.530Z,5.67
2019-03-31T15:16:28.138Z,4.73
2019-03-31T15:18:56.691Z,5.07
2019-03-31T15:21:25.291Z,4.70
2019-03-31T15:23:54.112Z,4.40
2019-03-31T15:26:22.784Z,4.80
2019-03-31T15:28:51.354Z,5.30
2019-03-31T15:31:19.927Z,5.20
2019-03-31T15:33:48.528Z,5.83
2019-03-31T15:36:17.093Z,5.37
2019-03-31T15:38:45.661Z,5.95
2019-03-31T15:41:21.005Z,6.53
2019-03-31T15:43:44.578Z,7.50
2019-03-31T15:46:13.062Z,5.83
2019-03-31T15:48:41.678Z,5.43
2019-03-31T15:51:10.610Z,5.70
2019-03-31T15:53:39.209Z,6.00
2019-03-31T15:56:07.787Z,6.67
2019-03-31T15:58:36.466Z,5.90
2019-03-31T16:01:05.191Z,6.07
2019-03-31T16:03:35.414Z,6.07
2019-03-31T16:06:04.070Z,5.40
2019-03-31T16:08:32.687Z,6.90
2019-03-31T16:11:04.594Z,5.13
2019-03-31T16:13:31.555Z,6.83
2019-03-31T16:16:00.130Z,4.30
2019-03-31T16:18:28.701Z,5.43
2019-03-31T16:20:57.266Z,5.93
2019-03-31T16:23:25.913Z,5.10
2019-03-31T16:25:56.141Z,5.13
2019-03-31T16:28:24.805Z,5.23
2019-03-31T16:30:53.393Z,3.73
2019-03-31T16:33:22.118Z,5.20
2019-03-31T16:35:50.691Z,6.57
2019-03-31T16:38:19.363Z,5.17
2019-03-31T16:40:47.940Z,4.67
2019-03-31T16:43:16.511Z,5.23
2019-03-31T16:45:47.264Z,5.27
2019-03-31T16:48:15.848Z,4.97
2019-03-31T16:50:44.418Z,6.53
2019-03-31T16:53:12.987Z,5.30
2019-03-31T16:55:41.700Z,6.37
2019-03-31T16:58:10.254Z,5.80
2019-03-31T17:00:39.750Z,4.83
2019-03-31T17:03:08.610Z,4.97
2019-03-31T17:05:37.175Z,4.40
2019-03-31T17:08:05.824Z,5.03
2019-03-31T17:10:34.400Z,4.03
2019-03-31T17:13:03.506Z,4.57
2019-03-31T17:15:32.024Z,4.70
2019-03-31T17:18:00.644Z,4.20
2019-03-31T17:20:29.243Z,4.13
2019-03-31T17:22:57.814Z,4.13
2019-03-31T17:25:26.401Z,4.20
2019-03-31T17:27:54.952Z,4.40
2019-03-31T17:30:23.784Z,5.33
2019-03-31T17:32:52.334Z,6.03
2019-03-31T17:35:20.906Z,4.27
2019-03-31T17:37:49.548Z,8.57
2019-03-31T17:40:18.100Z,4.87
2019-03-31T17:42:46.675Z,4.30
2019-03-31T17:45:17.317Z,4.83
2019-03-31T17:47:46.389Z,6.33
2019-03-31T17:50:15.115Z,7.60
2019-03-31T17:52:44.009Z,6.50
2019-03-31T17:55:12.992Z,7.30
2019-03-31T17:57:42.680Z,8.07
2019-03-31T18:00:12.060Z,8.20
2019-03-31T18:02:40.672Z,8.67
2019-03-31T18:05:09.713Z,7.13
2019-03-31T18:07:38.418Z,6.90
2019-03-31T18:10:20.106Z,7.90
2019-03-31T18:12:37.934Z,6.17
2019-03-31T18:15:07.162Z,4.77
2019-03-31T18:17:36.291Z,5.43
2019-03-31T18:20:06.565Z,5.67
2019-03-31T18:22:35.157Z,5.37
2019-03-31T18:25:05.368Z,6.20
2019-03-31T18:27:34.574Z,5.57
2019-03-31T18:30:03.917Z,6.57
2019-03-31T18:32:33.216Z,6.73
2019-03-31T18:35:02.376Z,6.30
2019-03-31T18:37:32.117Z,8.50
2019-03-31T18:40:00.899Z,5.63
2019-03-31T18:42:31.121Z,7.83
2019-03-31T18:45:01.157Z,6.20
2019-03-31T18:47:30.924Z,7.10
2019-03-31T18:50:00.968Z,6.00
2019-03-31T18:52:30.958Z,7.67
2019-03-31T18:55:20.631Z,5.60
2019-03-31T18:58:01.543Z,4.97
2019-03-31T19:00:38.715Z,3.87
2019-03-31T19:03:18.881Z,6.77
2019-03-31T19:05:58.875Z,6.20
2019-03-31T19:08:36.062Z,4.10
2019-03-31T19:11:24.463Z,6.23
2019-03-31T19:14:11.709Z,5.13
2019-03-31T19:16:59.003Z,5.67
2019-03-31T19:19:29.740Z,5.80
2019-03-31T19:22:09.789Z,5.57
2019-03-31T19:24:57.077Z,3.90
2019-03-31T19:27:36.960Z,5.50
2019-03-31T19:30:27.556Z,3.77
2019-03-31T19:33:04.613Z,6.20
2019-03-31T19:35:51.198Z,6.43
2019-03-31T19:38:21.511Z,3.80
2019-03-31T19:41:08.176Z,5.57
2019-03-31T19:43:41.431Z,8.20
2019-03-31T19:46:20.727Z,3.80
2019-03-31T19:48:53.845Z,4.90
2019-03-31T19:51:27.363Z,4.20
2019-03-31T19:54:09.696Z,3.90
2019-03-31T19:56:40.063Z,3.97
2019-03-31T19:59:22.313Z,4.60
2019-03-31T20:01:52.613Z,4.73
2019-03-31T20:04:39.259Z,4.43
2019-03-31T20:07:21.479Z,3.93
2019-03-31T20:10:00.486Z,7.27
2019-03-31T20:12:33.347Z,5.40
2019-03-31T20:15:05.997Z,5.93
2019-03-31T20:17:52.908Z,9.67
2019-03-31T20:20:23.100Z,5.80
2019-03-31T20:23:10.017Z,7.13
2019-03-31T20:25:56.527Z,5.70
2019-03-31T20:28:35.754Z,6.30
2019-03-31T20:31:15.309Z,7.57
2019-03-31T20:33:57.383Z,5.83
2019-03-31T20:36:33.570Z,3.83
2019-03-31T20:39:09.500Z,4.20
2019-03-31T20:41:45.463Z,5.17
2019-03-31T20:44:14.053Z,3.80
2019-03-31T20:46:42.599Z,4.90
2019-03-31T20:49:11.181Z,5.97
2019-03-31T20:51:40.142Z,4.37
2019-03-31T20:54:08.747Z,4.43
2019-03-31T20:56:37.340Z,3.57
2019-03-31T20:59:05.878Z,5.27
2019-03-31T21:01:34.451Z,4.83
2019-03-31T21:04:03.100Z,4.83
2019-03-31T21:06:31.663Z,5.07
2019-03-31T21:09:00.305Z,4.70
2019-03-31T21:11:28.881Z,4.00
2019-03-31T21:13:57.693Z,4.40
2019-03-31T21:16:26.265Z,7.53
2019-03-31T21:18:54.756Z,5.37
2019-03-31T21:21:23.326Z,6.73
2019-03-31T21:23:51.899Z,4.53
2019-03-31T21:26:20.639Z,6.75
2019-03-31T21:28:49.692Z,5.07
2019-03-31T21:31:18.238Z,4.43
2019-03-31T21:33:46.825Z,5.80
2019-03-31T21:36:15.751Z,4.97
2019-03-31T21:38:44.414Z,5.33
2019-03-31T21:41:14.295Z,6.23
2019-03-31T21:43:42.919Z,5.77
2019-03-31T21:46:11.505Z,5.43
2019-03-31T21:48:40.046Z,4.60
2019-03-31T21:51:08.679Z,13.37
2019-03-31T21:53:37.318Z,4.67
2019-03-31T21:56:05.874Z,8.83
2019-03-31T21:58:34.478Z,8.13
2019-03-31T22:01:03.131Z,5.20
2019-03-31T22:03:31.734Z,7.40
2019-03-31T22:06:00.330Z,3.40
2019-03-31T22:08:28.889Z,5.10
2019-03-31T22:10:57.474Z,9.67
2019-03-31T22:13:26.129Z,7.20
2019-03-31T22:15:54.683Z,3.87
2019-03-31T22:18:23.274Z,3.63
2019-03-31T22:20:51.839Z,5.80
2019-03-31T22:23:20.763Z,7.43
2019-03-31T22:25:49.401Z,6.60
2019-03-31T22:28:18.241Z,5.80
2019-03-31T22:30:46.800Z,6.50
2019-03-31T22:33:15.386Z,7.97
2019-03-31T22:35:45.638Z,5.83
2019-03-31T22:38:14.161Z,7.40
2019-03-31T22:40:42.735Z,7.63
2019-03-31T22:43:11.283Z,5.27
2019-03-31T22:45:39.874Z,5.73
2019-03-31T22:48:08.419Z,5.23
2019-03-31T22:50:36.987Z,6.43
2019-03-31T22:53:05.587Z,7.33
2019-03-31T22:55:34.220Z,6.90
2019-03-31T22:58:02.790Z,6.30
2019-03-31T23:00:31.373Z,5.70
2019-03-31T23:02:59.914Z,7.00
2019-03-31T23:05:28.652Z,7.77
2019-03-31T23:07:57.223Z,4.43
2019-03-31T23:10:25.776Z,8.07
2019-03-31T23:12:54.431Z,4.40
2019-03-31T23:15:23.118Z,4.50
2019-03-31T23:17:51.617Z,8.07
2019-03-31T23:20:20.199Z,5.80
2019-03-31T23:22:48.747Z,9.17
2019-03-31T23:25:17.342Z,4.17
2019-03-31T23:27:45.894Z,3.47
2019-03-31T23:30:14.710Z,7.43
2019-03-31T23:32:43.289Z,5.50
2019-03-31T23:35:11.923Z,7.97
2019-03-31T23:37:40.499Z,7.53
2019-03-31T23:40:09.414Z,7.63
2019-03-31T23:42:37.964Z,5.83
2019-03-31T23:45:07.161Z,6.30
2019-03-31T23:47:35.717Z,4.27
2019-03-31T23:50:05.123Z,6.77
2019-03-31T23:52:34.078Z,6.23
2019-03-31T23:55:02.919Z,6.33
2019-03-31T23:57:42.188Z,6.07
